sensor_id;sensor_type;location;lat;lon;timestamp;P1;durP1;ratioP1;P2;durP2;ratioP2
14040;SDS011;7095;51.388;6.196;2023-04-24T00:02:21;6.27;;;5.10;;
14040;SDS011;7095;51.388;6.196;2023-04-24T00:04:51;6.50;;;5.37;;
14040;SDS011;7095;51.388;6.196;2023-04-24T00:07:19;8.20;;;5.20;;
14040;SDS011;7095;51.388;6.196;2023-04-24T00:09:48;7.90;;;4.67;;
14040;SDS011;7095;51.388;6.196;2023-04-24T00:12:18;7.87;;;4.63;;
14040;SDS011;7095;51.388;6.196;2023-04-24T00:14:47;6.07;;;4.80;;
14040;SDS011;7095;51.388;6.196;2023-04-24T00:17:15;11.57;;;5.50;;
14040;SDS011;7095;51.388;6.196;2023-04-24T00:19:49;7.20;;;4.70;;
14040;SDS011;7095;51.388;6.196;2023-04-24T00:22:18;6.03;;;4.93;;
14040;SDS011;7095;51.388;6.196;2023-04-24T00:24:47;5.93;;;4.63;;
14040;SDS011;7095;51.388;6.196;2023-04-24T00:27:16;8.63;;;5.23;;
14040;SDS011;7095;51.388;6.196;2023-04-24T00:29:46;5.93;;;4.67;;
14040;SDS011;7095;51.388;6.196;2023-04-24T00:32:14;8.97;;;5.27;;
14040;SDS011;7095;51.388;6.196;2023-04-24T00:34:45;7.73;;;5.60;;
14040;SDS011;7095;51.388;6.196;2023-04-24T00:37:13;6.40;;;5.33;;
14040;SDS011;7095;51.388;6.196;2023-04-24T00:39:43;9.07;;;5.97;;
14040;SDS011;7095;51.388;6.196;2023-04-24T00:42:14;12.33;;;6.47;;
14040;SDS011;7095;51.388;6.196;2023-04-24T00:44:43;10.43;;;6.47;;
14040;SDS011;7095;51.388;6.196;2023-04-24T00:47:16;14.20;;;6.67;;
14040;SDS011;7095;51.388;6.196;2023-04-24T00:49:47;12.40;;;7.33;;
14040;SDS011;7095;51.388;6.196;2023-04-24T00:52:18;9.80;;;6.53;;
14040;SDS011;7095;51.388;6.196;2023-04-24T00:54:47;10.00;;;6.70;;
14040;SDS011;7095;51.388;6.196;2023-04-24T00:57:16;10.20;;;6.93;;
14040;SDS011;7095;51.388;6.196;2023-04-24T00:59:45;9.43;;;7.13;;
14040;SDS011;7095;51.388;6.196;2023-04-24T01:02:15;10.27;;;7.53;;
14040;SDS011;7095;51.388;6.196;2023-04-24T01:04:44;12.67;;;7.70;;
14040;SDS011;7095;51.388;6.196;2023-04-24T01:07:12;10.90;;;7.70;;
14040;SDS011;7095;51.388;6.196;2023-04-24T01:09:41;11.53;;;7.70;;
14040;SDS011;7095;51.388;6.196;2023-04-24T01:12:10;12.30;;;8.23;;
14040;SDS011;7095;51.388;6.196;2023-04-24T01:14:38;14.77;;;8.37;;
14040;SDS011;7095;51.388;6.196;2023-04-24T01:17:07;15.40;;;7.83;;
14040;SDS011;7095;51.388;6.196;2023-04-24T01:19:37;14.33;;;8.10;;
14040;SDS011;7095;51.388;6.196;2023-04-24T01:22:11;13.27;;;8.10;;
14040;SDS011;7095;51.388;6.196;2023-04-24T01:24:40;12.40;;;8.03;;
14040;SDS011;7095;51.388;6.196;2023-04-24T01:27:11;13.77;;;8.10;;
14040;SDS011;7095;51.388;6.196;2023-04-24T01:29:40;13.93;;;8.37;;
14040;SDS011;7095;51.388;6.196;2023-04-24T01:32:10;19.37;;;8.67;;
14040;SDS011;7095;51.388;6.196;2023-04-24T01:34:39;13.57;;;8.43;;
14040;SDS011;7095;51.388;6.196;2023-04-24T01:37:08;12.90;;;9.17;;
14040;SDS011;7095;51.388;6.196;2023-04-24T01:39:39;14.20;;;9.00;;
14040;SDS011;7095;51.388;6.196;2023-04-24T01:42:08;14.70;;;9.33;;
14040;SDS011;7095;51.388;6.196;2023-04-24T01:44:38;15.23;;;9.63;;
14040;SDS011;7095;51.388;6.196;2023-04-24T01:47:08;13.93;;;9.80;;
14040;SDS011;7095;51.388;6.196;2023-04-24T01:49:37;15.47;;;10.33;;
14040;SDS011;7095;51.388;6.196;2023-04-24T01:52:07;23.50;;;11.70;;
14040;SDS011;7095;51.388;6.196;2023-04-24T01:54:37;18.20;;;11.50;;
14040;SDS011;7095;51.388;6.196;2023-04-24T01:57:05;15.40;;;11.10;;
14040;SDS011;7095;51.388;6.196;2023-04-24T01:59:34;20.87;;;12.30;;
14040;SDS011;7095;51.388;6.196;2023-04-24T02:02:03;18.60;;;11.60;;
14040;SDS011;7095;51.388;6.196;2023-04-24T02:04:32;23.00;;;12.67;;
14040;SDS011;7095;51.388;6.196;2023-04-24T02:07:01;19.93;;;12.27;;
14040;SDS011;7095;51.388;6.196;2023-04-24T02:09:31;20.33;;;12.83;;
14040;SDS011;7095;51.388;6.196;2023-04-24T02:12:01;20.53;;;12.60;;
14040;SDS011;7095;51.388;6.196;2023-04-24T02:14:29;18.47;;;12.97;;
14040;SDS011;7095;51.388;6.196;2023-04-24T02:16:58;19.87;;;12.77;;
14040;SDS011;7095;51.388;6.196;2023-04-24T02:19:27;22.17;;;13.23;;
14040;SDS011;7095;51.388;6.196;2023-04-24T02:21:56;27.50;;;14.10;;
14040;SDS011;7095;51.388;6.196;2023-04-24T02:24:25;20.80;;;13.33;;
14040;SDS011;7095;51.388;6.196;2023-04-24T02:26:53;24.33;;;13.93;;
14040;SDS011;7095;51.388;6.196;2023-04-24T02:29:24;23.77;;;14.83;;
14040;SDS011;7095;51.388;6.196;2023-04-24T02:31:52;22.00;;;13.77;;
14040;SDS011;7095;51.388;6.196;2023-04-24T02:34:21;23.47;;;14.00;;
14040;SDS011;7095;51.388;6.196;2023-04-24T02:36:49;21.40;;;14.30;;
14040;SDS011;7095;51.388;6.196;2023-04-24T02:39:20;18.47;;;13.83;;
14040;SDS011;7095;51.388;6.196;2023-04-24T02:41:48;24.00;;;14.70;;
14040;SDS011;7095;51.388;6.196;2023-04-24T02:44:17;24.17;;;14.83;;
14040;SDS011;7095;51.388;6.196;2023-04-24T02:46:47;23.07;;;13.37;;
14040;SDS011;7095;51.388;6.196;2023-04-24T02:49:15;19.77;;;14.23;;
14040;SDS011;7095;51.388;6.196;2023-04-24T02:51:44;26.47;;;13.77;;
14040;SDS011;7095;51.388;6.196;2023-04-24T02:54:13;22.00;;;13.67;;
14040;SDS011;7095;51.388;6.196;2023-04-24T02:56:41;24.03;;;14.87;;
14040;SDS011;7095;51.388;6.196;2023-04-24T02:59:09;22.20;;;14.70;;
14040;SDS011;7095;51.388;6.196;2023-04-24T03:01:38;21.57;;;14.50;;
14040;SDS011;7095;51.388;6.196;2023-04-24T03:04:08;23.23;;;14.10;;
14040;SDS011;7095;51.388;6.196;2023-04-24T03:06:37;29.17;;;14.70;;
14040;SDS011;7095;51.388;6.196;2023-04-24T03:09:05;23.90;;;15.23;;
14040;SDS011;7095;51.388;6.196;2023-04-24T03:11:34;30.20;;;15.33;;
14040;SDS011;7095;51.388;6.196;2023-04-24T03:14:02;19.77;;;14.47;;
14040;SDS011;7095;51.388;6.196;2023-04-24T03:16:31;18.97;;;13.47;;
14040;SDS011;7095;51.388;6.196;2023-04-24T03:18:59;27.03;;;13.93;;
14040;SDS011;7095;51.388;6.196;2023-04-24T03:21:33;20.87;;;13.90;;
14040;SDS011;7095;51.388;6.196;2023-04-24T03:24:07;17.53;;;14.17;;
14040;SDS011;7095;51.388;6.196;2023-04-24T03:26:36;17.87;;;12.33;;
14040;SDS011;7095;51.388;6.196;2023-04-24T03:29:17;21.07;;;13.47;;
14040;SDS011;7095;51.388;6.196;2023-04-24T03:31:46;20.23;;;14.07;;
14040;SDS011;7095;51.388;6.196;2023-04-24T03:34:15;21.03;;;13.30;;
14040;SDS011;7095;51.388;6.196;2023-04-24T03:36:44;22.03;;;13.90;;
14040;SDS011;7095;51.388;6.196;2023-04-24T03:39:15;20.27;;;12.80;;
14040;SDS011;7095;51.388;6.196;2023-04-24T03:41:52;21.53;;;13.03;;
14040;SDS011;7095;51.388;6.196;2023-04-24T03:44:26;22.63;;;12.30;;
14040;SDS011;7095;51.388;6.196;2023-04-24T03:46:55;19.63;;;12.43;;
14040;SDS011;7095;51.388;6.196;2023-04-24T03:49:24;17.80;;;11.97;;
14040;SDS011;7095;51.388;6.196;2023-04-24T03:51:54;20.77;;;12.87;;
14040;SDS011;7095;51.388;6.196;2023-04-24T03:54:25;16.07;;;12.23;;
14040;SDS011;7095;51.388;6.196;2023-04-24T03:56:54;18.30;;;11.80;;
14040;SDS011;7095;51.388;6.196;2023-04-24T03:59:27;16.97;;;12.57;;
14040;SDS011;7095;51.388;6.196;2023-04-24T04:02:08;14.43;;;11.03;;
14040;SDS011;7095;51.388;6.196;2023-04-24T04:04:36;20.93;;;12.70;;
14040;SDS011;7095;51.388;6.196;2023-04-24T04:07:07;17.27;;;11.63;;
14040;SDS011;7095;51.388;6.196;2023-04-24T04:09:38;18.43;;;11.90;;
14040;SDS011;7095;51.388;6.196;2023-04-24T04:12:08;14.33;;;11.17;;
14040;SDS011;7095;51.388;6.196;2023-04-24T04:14:38;17.33;;;11.17;;
14040;SDS011;7095;51.388;6.196;2023-04-24T04:17:06;14.83;;;11.30;;
14040;SDS011;7095;51.388;6.196;2023-04-24T04:19:35;15.80;;;9.60;;
14040;SDS011;7095;51.388;6.196;2023-04-24T04:22:03;16.30;;;10.47;;
14040;SDS011;7095;51.388;6.196;2023-04-24T04:24:45;14.87;;;9.93;;
14040;SDS011;7095;51.388;6.196;2023-04-24T04:27:14;12.67;;;8.97;;
14040;SDS011;7095;51.388;6.196;2023-04-24T04:29:57;10.70;;;8.50;;
14040;SDS011;7095;51.388;6.196;2023-04-24T04:32:29;12.83;;;9.37;;
14040;SDS011;7095;51.388;6.196;2023-04-24T04:34:58;11.63;;;8.20;;
14040;SDS011;7095;51.388;6.196;2023-04-24T04:37:31;11.57;;;8.90;;
14040;SDS011;7095;51.388;6.196;2023-04-24T04:40:20;11.87;;;8.43;;
14040;SDS011;7095;51.388;6.196;2023-04-24T04:42:56;12.83;;;9.23;;
14040;SDS011;7095;51.388;6.196;2023-04-24T04:45:28;11.60;;;8.70;;
14040;SDS011;7095;51.388;6.196;2023-04-24T04:48:16;12.10;;;8.70;;
14040;SDS011;7095;51.388;6.196;2023-04-24T04:50:45;16.13;;;9.57;;
14040;SDS011;7095;51.388;6.196;2023-04-24T04:53:14;13.33;;;8.97;;
14040;SDS011;7095;51.388;6.196;2023-04-24T04:55:45;11.57;;;9.50;;
14040;SDS011;7095;51.388;6.196;2023-04-24T04:58:17;13.50;;;10.20;;
14040;SDS011;7095;51.388;6.196;2023-04-24T05:00:49;11.77;;;9.40;;
14040;SDS011;7095;51.388;6.196;2023-04-24T05:03:29;14.37;;;10.43;;
14040;SDS011;7095;51.388;6.196;2023-04-24T05:06:08;13.70;;;10.60;;
14040;SDS011;7095;51.388;6.196;2023-04-24T05:08:38;11.77;;;10.10;;
14040;SDS011;7095;51.388;6.196;2023-04-24T05:11:19;13.30;;;10.40;;
14040;SDS011;7095;51.388;6.196;2023-04-24T05:13:48;15.37;;;11.10;;
14040;SDS011;7095;51.388;6.196;2023-04-24T05:16:21;15.63;;;10.70;;
14040;SDS011;7095;51.388;6.196;2023-04-24T05:18:52;12.77;;;10.97;;
14040;SDS011;7095;51.388;6.196;2023-04-24T05:21:27;18.27;;;12.17;;
14040;SDS011;7095;51.388;6.196;2023-04-24T05:23:56;13.30;;;11.37;;
14040;SDS011;7095;51.388;6.196;2023-04-24T05:26:46;15.53;;;11.60;;
14040;SDS011;7095;51.388;6.196;2023-04-24T05:29:18;16.10;;;11.40;;
14040;SDS011;7095;51.388;6.196;2023-04-24T05:31:48;15.23;;;11.70;;
14040;SDS011;7095;51.388;6.196;2023-04-24T05:34:17;15.07;;;11.70;;
14040;SDS011;7095;51.388;6.196;2023-04-24T05:36:49;14.97;;;11.27;;
14040;SDS011;7095;51.388;6.196;2023-04-24T05:39:19;15.00;;;11.17;;
14040;SDS011;7095;51.388;6.196;2023-04-24T05:41:48;15.03;;;11.43;;
14040;SDS011;7095;51.388;6.196;2023-04-24T05:44:17;21.77;;;13.40;;
14040;SDS011;7095;51.388;6.196;2023-04-24T05:46:45;15.80;;;11.87;;
14040;SDS011;7095;51.388;6.196;2023-04-24T05:49:15;16.07;;;11.67;;
14040;SDS011;7095;51.388;6.196;2023-04-24T05:51:44;16.17;;;10.63;;
14040;SDS011;7095;51.388;6.196;2023-04-24T05:54:14;15.13;;;11.13;;
14040;SDS011;7095;51.388;6.196;2023-04-24T05:56:43;14.33;;;11.17;;
14040;SDS011;7095;51.388;6.196;2023-04-24T05:59:16;15.10;;;11.63;;
14040;SDS011;7095;51.388;6.196;2023-04-24T06:01:45;13.50;;;11.17;;
14040;SDS011;7095;51.388;6.196;2023-04-24T06:04:18;18.17;;;10.67;;
14040;SDS011;7095;51.388;6.196;2023-04-24T06:06:51;12.93;;;10.43;;
14040;SDS011;7095;51.388;6.196;2023-04-24T06:09:22;11.37;;;9.83;;
14040;SDS011;7095;51.388;6.196;2023-04-24T06:11:51;11.47;;;10.23;;
14040;SDS011;7095;51.388;6.196;2023-04-24T06:14:26;11.67;;;9.03;;
14040;SDS011;7095;51.388;6.196;2023-04-24T06:17:17;9.87;;;7.97;;
14040;SDS011;7095;51.388;6.196;2023-04-24T06:19:47;12.37;;;7.83;;
14040;SDS011;7095;51.388;6.196;2023-04-24T06:22:15;9.50;;;7.07;;
14040;SDS011;7095;51.388;6.196;2023-04-24T06:24:44;9.20;;;6.23;;
14040;SDS011;7095;51.388;6.196;2023-04-24T06:27:14;8.13;;;6.00;;
14040;SDS011;7095;51.388;6.196;2023-04-24T06:29:43;6.47;;;5.43;;
14040;SDS011;7095;51.388;6.196;2023-04-24T06:32:12;4.97;;;4.27;;
14040;SDS011;7095;51.388;6.196;2023-04-24T06:34:41;4.90;;;4.20;;
14040;SDS011;7095;51.388;6.196;2023-04-24T06:37:09;5.00;;;4.30;;
14040;SDS011;7095;51.388;6.196;2023-04-24T06:39:37;4.93;;;3.83;;
14040;SDS011;7095;51.388;6.196;2023-04-24T06:42:06;4.90;;;3.67;;
14040;SDS011;7095;51.388;6.196;2023-04-24T06:44:36;3.97;;;3.57;;
14040;SDS011;7095;51.388;6.196;2023-04-24T06:47:09;4.47;;;3.30;;
14040;SDS011;7095;51.388;6.196;2023-04-24T06:49:40;3.47;;;3.03;;
14040;SDS011;7095;51.388;6.196;2023-04-24T06:52:09;4.97;;;3.40;;
14040;SDS011;7095;51.388;6.196;2023-04-24T06:54:38;3.03;;;2.67;;
14040;SDS011;7095;51.388;6.196;2023-04-24T06:57:06;5.27;;;2.97;;
14040;SDS011;7095;51.388;6.196;2023-04-24T06:59:34;4.03;;;2.90;;
14040;SDS011;7095;51.388;6.196;2023-04-24T07:02:03;6.03;;;3.43;;
14040;SDS011;7095;51.388;6.196;2023-04-24T07:04:33;3.80;;;3.03;;
14040;SDS011;7095;51.388;6.196;2023-04-24T07:07:02;3.00;;;2.70;;
14040;SDS011;7095;51.388;6.196;2023-04-24T07:09:31;5.87;;;2.27;;
14040;SDS011;7095;51.388;6.196;2023-04-24T07:12:02;3.30;;;2.23;;
14040;SDS011;7095;51.388;6.196;2023-04-24T07:14:32;6.47;;;2.87;;
14040;SDS011;7095;51.388;6.196;2023-04-24T07:17:02;3.70;;;2.60;;
14040;SDS011;7095;51.388;6.196;2023-04-24T07:19:32;6.33;;;3.60;;
14040;SDS011;7095;51.388;6.196;2023-04-24T07:22:02;3.87;;;2.77;;
14040;SDS011;7095;51.388;6.196;2023-04-24T07:24:31;3.53;;;2.67;;
14040;SDS011;7095;51.388;6.196;2023-04-24T07:27:00;2.90;;;2.70;;
14040;SDS011;7095;51.388;6.196;2023-04-24T07:29:29;2.97;;;2.77;;
14040;SDS011;7095;51.388;6.196;2023-04-24T07:31:57;5.97;;;3.70;;
14040;SDS011;7095;51.388;6.196;2023-04-24T07:34:28;6.83;;;3.90;;
14040;SDS011;7095;51.388;6.196;2023-04-24T07:36:58;4.87;;;3.70;;
14040;SDS011;7095;51.388;6.196;2023-04-24T07:39:27;5.83;;;4.17;;
14040;SDS011;7095;51.388;6.196;2023-04-24T07:41:56;3.40;;;3.10;;
14040;SDS011;7095;51.388;6.196;2023-04-24T07:44:25;5.70;;;3.00;;
14040;SDS011;7095;51.388;6.196;2023-04-24T07:46:54;3.47;;;2.50;;
14040;SDS011;7095;51.388;6.196;2023-04-24T07:49:23;3.80;;;3.07;;
14040;SDS011;7095;51.388;6.196;2023-04-24T07:51:52;4.67;;;3.00;;
14040;SDS011;7095;51.388;6.196;2023-04-24T07:54:22;4.07;;;3.00;;
14040;SDS011;7095;51.388;6.196;2023-04-24T07:56:50;4.80;;;3.47;;
14040;SDS011;7095;51.388;6.196;2023-04-24T07:59:18;6.37;;;2.97;;
14040;SDS011;7095;51.388;6.196;2023-04-24T08:01:47;6.03;;;3.40;;
14040;SDS011;7095;51.388;6.196;2023-04-24T08:04:15;4.93;;;3.40;;
14040;SDS011;7095;51.388;6.196;2023-04-24T08:06:44;4.20;;;2.13;;
14040;SDS011;7095;51.388;6.196;2023-04-24T08:09:15;2.50;;;2.20;;
14040;SDS011;7095;51.388;6.196;2023-04-24T08:11:45;6.93;;;5.53;;
14040;SDS011;7095;51.388;6.196;2023-04-24T08:14:13;8.73;;;7.17;;
14040;SDS011;7095;51.388;6.196;2023-04-24T08:16:42;14.00;;;11.77;;
14040;SDS011;7095;51.388;6.196;2023-04-24T08:19:10;16.50;;;12.30;;
14040;SDS011;7095;51.388;6.196;2023-04-24T08:21:39;14.97;;;10.70;;
14040;SDS011;7095;51.388;6.196;2023-04-24T08:24:07;15.83;;;12.30;;
14040;SDS011;7095;51.388;6.196;2023-04-24T08:26:36;11.10;;;8.17;;
14040;SDS011;7095;51.388;6.196;2023-04-24T08:29:06;13.57;;;9.57;;
14040;SDS011;7095;51.388;6.196;2023-04-24T08:31:34;16.57;;;9.77;;
14040;SDS011;7095;51.388;6.196;2023-04-24T08:34:03;14.00;;;10.27;;
14040;SDS011;7095;51.388;6.196;2023-04-24T08:36:31;20.07;;;10.97;;
14040;SDS011;7095;51.388;6.196;2023-04-24T08:39:12;16.83;;;10.17;;
14040;SDS011;7095;51.388;6.196;2023-04-24T08:41:41;14.57;;;9.67;;
14040;SDS011;7095;51.388;6.196;2023-04-24T08:44:13;11.60;;;9.33;;
14040;SDS011;7095;51.388;6.196;2023-04-24T08:46:45;14.40;;;10.17;;
14040;SDS011;7095;51.388;6.196;2023-04-24T08:49:17;12.17;;;8.57;;
14040;SDS011;7095;51.388;6.196;2023-04-24T08:51:46;15.10;;;8.33;;
14040;SDS011;7095;51.388;6.196;2023-04-24T08:54:16;16.37;;;8.43;;
14040;SDS011;7095;51.388;6.196;2023-04-24T08:56:45;12.43;;;8.23;;
14040;SDS011;7095;51.388;6.196;2023-04-24T08:59:17;16.87;;;8.77;;
14040;SDS011;7095;51.388;6.196;2023-04-24T09:01:46;23.53;;;7.63;;
14040;SDS011;7095;51.388;6.196;2023-04-24T09:04:18;12.87;;;8.47;;
14040;SDS011;7095;51.388;6.196;2023-04-24T09:06:49;16.67;;;8.77;;
14040;SDS011;7095;51.388;6.196;2023-04-24T09:09:17;19.63;;;7.83;;
14040;SDS011;7095;51.388;6.196;2023-04-24T09:11:46;17.73;;;8.40;;
14040;SDS011;7095;51.388;6.196;2023-04-24T09:14:18;17.43;;;8.30;;
14040;SDS011;7095;51.388;6.196;2023-04-24T09:16:47;22.07;;;9.57;;
14040;SDS011;7095;51.388;6.196;2023-04-24T09:19:17;19.03;;;8.80;;
14040;SDS011;7095;51.388;6.196;2023-04-24T09:21:45;22.67;;;9.00;;
14040;SDS011;7095;51.388;6.196;2023-04-24T09:24:15;23.77;;;9.33;;
14040;SDS011;7095;51.388;6.196;2023-04-24T09:26:45;22.70;;;9.10;;
14040;SDS011;7095;51.388;6.196;2023-04-24T09:29:14;21.80;;;9.97;;
14040;SDS011;7095;51.388;6.196;2023-04-24T09:31:45;24.03;;;11.07;;
14040;SDS011;7095;51.388;6.196;2023-04-24T09:34:13;20.63;;;9.77;;
14040;SDS011;7095;51.388;6.196;2023-04-24T09:36:45;15.90;;;8.67;;
14040;SDS011;7095;51.388;6.196;2023-04-24T09:39:14;24.63;;;9.93;;
14040;SDS011;7095;51.388;6.196;2023-04-24T09:41:44;22.07;;;7.90;;
14040;SDS011;7095;51.388;6.196;2023-04-24T09:44:16;16.33;;;8.10;;
14040;SDS011;7095;51.388;6.196;2023-04-24T09:46:50;17.23;;;6.43;;
14040;SDS011;7095;51.388;6.196;2023-04-24T09:49:21;18.30;;;7.50;;
14040;SDS011;7095;51.388;6.196;2023-04-24T09:51:50;21.20;;;6.17;;
14040;SDS011;7095;51.388;6.196;2023-04-24T09:54:20;14.50;;;6.57;;
14040;SDS011;7095;51.388;6.196;2023-04-24T09:56:50;15.57;;;5.80;;
14040;SDS011;7095;51.388;6.196;2023-04-24T09:59:19;21.57;;;6.80;;
14040;SDS011;7095;51.388;6.196;2023-04-24T10:01:47;27.53;;;8.27;;
14040;SDS011;7095;51.388;6.196;2023-04-24T10:04:19;19.43;;;6.93;;
14040;SDS011;7095;51.388;6.196;2023-04-24T10:06:49;15.77;;;6.57;;
14040;SDS011;7095;51.388;6.196;2023-04-24T10:09:19;19.77;;;6.67;;
14040;SDS011;7095;51.388;6.196;2023-04-24T10:11:49;23.27;;;8.13;;
14040;SDS011;7095;51.388;6.196;2023-04-24T10:14:21;16.27;;;8.70;;
14040;SDS011;7095;51.388;6.196;2023-04-24T10:16:52;20.83;;;8.47;;
14040;SDS011;7095;51.388;6.196;2023-04-24T10:19:23;21.77;;;8.77;;
14040;SDS011;7095;51.388;6.196;2023-04-24T10:21:54;17.10;;;7.53;;
14040;SDS011;7095;51.388;6.196;2023-04-24T10:24:24;16.23;;;7.80;;
14040;SDS011;7095;51.388;6.196;2023-04-24T10:26:52;15.83;;;7.13;;
14040;SDS011;7095;51.388;6.196;2023-04-24T10:29:21;18.87;;;7.07;;
14040;SDS011;7095;51.388;6.196;2023-04-24T10:31:49;20.63;;;7.50;;
14040;SDS011;7095;51.388;6.196;2023-04-24T10:34:19;14.60;;;6.60;;
14040;SDS011;7095;51.388;6.196;2023-04-24T10:36:50;18.83;;;6.07;;
14040;SDS011;7095;51.388;6.196;2023-04-24T10:39:23;15.33;;;4.57;;
14040;SDS011;7095;51.388;6.196;2023-04-24T10:41:53;13.80;;;4.60;;
14040;SDS011;7095;51.388;6.196;2023-04-24T10:44:24;12.60;;;4.33;;
14040;SDS011;7095;51.388;6.196;2023-04-24T10:46:55;13.33;;;5.33;;
14040;SDS011;7095;51.388;6.196;2023-04-24T10:49:30;21.30;;;5.23;;
14040;SDS011;7095;51.388;6.196;2023-04-24T10:52:00;10.73;;;3.77;;
14040;SDS011;7095;51.388;6.196;2023-04-24T10:54:33;9.47;;;4.07;;
14040;SDS011;7095;51.388;6.196;2023-04-24T11:00:10;13.43;;;4.00;;
14040;SDS011;7095;51.388;6.196;2023-04-24T11:02:45;9.17;;;3.63;;
14040;SDS011;7095;51.388;6.196;2023-04-24T11:05:17;10.00;;;4.40;;
14040;SDS011;7095;51.388;6.196;2023-04-24T11:10:46;12.57;;;3.50;;
14040;SDS011;7095;51.388;6.196;2023-04-24T11:13:15;17.50;;;4.23;;
14040;SDS011;7095;51.388;6.196;2023-04-24T11:15:45;11.70;;;3.30;;
14040;SDS011;7095;51.388;6.196;2023-04-24T11:18:59;10.37;;;3.00;;
14040;SDS011;7095;51.388;6.196;2023-04-24T11:21:31;7.00;;;2.90;;
14040;SDS011;7095;51.388;6.196;2023-04-24T11:26:56;6.67;;;3.27;;
14040;SDS011;7095;51.388;6.196;2023-04-24T11:29:39;8.33;;;2.57;;
14040;SDS011;7095;51.388;6.196;2023-04-24T11:32:14;9.53;;;2.43;;
14040;SDS011;7095;51.388;6.196;2023-04-24T11:34:47;8.77;;;2.67;;
14040;SDS011;7095;51.388;6.196;2023-04-24T11:37:17;13.17;;;2.70;;
14040;SDS011;7095;51.388;6.196;2023-04-24T11:39:45;7.43;;;3.40;;
14040;SDS011;7095;51.388;6.196;2023-04-24T11:42:14;11.30;;;3.17;;
14040;SDS011;7095;51.388;6.196;2023-04-24T11:44:43;9.37;;;3.00;;
14040;SDS011;7095;51.388;6.196;2023-04-24T11:47:14;11.63;;;3.03;;
14040;SDS011;7095;51.388;6.196;2023-04-24T11:49:42;7.23;;;2.80;;
14040;SDS011;7095;51.388;6.196;2023-04-24T11:52:13;9.17;;;2.40;;
14040;SDS011;7095;51.388;6.196;2023-04-24T11:54:47;14.83;;;2.73;;
14040;SDS011;7095;51.388;6.196;2023-04-24T11:57:18;9.37;;;2.67;;
14040;SDS011;7095;51.388;6.196;2023-04-24T11:59:49;5.87;;;2.03;;
14040;SDS011;7095;51.388;6.196;2023-04-24T12:02:24;6.27;;;2.87;;
14040;SDS011;7095;51.388;6.196;2023-04-24T12:04:54;6.80;;;2.30;;
14040;SDS011;7095;51.388;6.196;2023-04-24T12:07:25;7.70;;;3.07;;
14040;SDS011;7095;51.388;6.196;2023-04-24T12:09:55;7.33;;;2.00;;
14040;SDS011;7095;51.388;6.196;2023-04-24T12:12:27;9.47;;;2.83;;
14040;SDS011;7095;51.388;6.196;2023-04-24T12:14:56;7.60;;;2.77;;
14040;SDS011;7095;51.388;6.196;2023-04-24T12:17:26;8.83;;;2.10;;
14040;SDS011;7095;51.388;6.196;2023-04-24T12:19:57;7.67;;;2.00;;
14040;SDS011;7095;51.388;6.196;2023-04-24T12:22:36;4.57;;;1.57;;
14040;SDS011;7095;51.388;6.196;2023-04-24T12:25:12;7.80;;;1.23;;
14040;SDS011;7095;51.388;6.196;2023-04-24T12:27:41;5.63;;;1.73;;
14040;SDS011;7095;51.388;6.196;2023-04-24T12:30:11;3.77;;;1.67;;
14040;SDS011;7095;51.388;6.196;2023-04-24T12:32:42;5.97;;;1.37;;
14040;SDS011;7095;51.388;6.196;2023-04-24T12:35:11;4.60;;;1.67;;
14040;SDS011;7095;51.388;6.196;2023-04-24T12:37:43;7.67;;;1.47;;
14040;SDS011;7095;51.388;6.196;2023-04-24T12:40:13;3.37;;;1.63;;
14040;SDS011;7095;51.388;6.196;2023-04-24T12:42:43;4.00;;;1.33;;
14040;SDS011;7095;51.388;6.196;2023-04-24T12:45:12;4.53;;;1.97;;
14040;SDS011;7095;51.388;6.196;2023-04-24T12:47:42;9.17;;;2.43;;
14040;SDS011;7095;51.388;6.196;2023-04-24T12:50:11;7.80;;;1.67;;
14040;SDS011;7095;51.388;6.196;2023-04-24T12:52:43;4.03;;;1.57;;
14040;SDS011;7095;51.388;6.196;2023-04-24T12:55:12;8.00;;;1.70;;
14040;SDS011;7095;51.388;6.196;2023-04-24T12:57:40;3.80;;;1.50;;
14040;SDS011;7095;51.388;6.196;2023-04-24T13:00:09;8.70;;;1.03;;
14040;SDS011;7095;51.388;6.196;2023-04-24T13:02:38;3.53;;;1.07;;
14040;SDS011;7095;51.388;6.196;2023-04-24T13:05:08;2.67;;;0.87;;
14040;SDS011;7095;51.388;6.196;2023-04-24T13:07:38;6.27;;;1.67;;
14040;SDS011;7095;51.388;6.196;2023-04-24T13:10:09;2.93;;;1.10;;
14040;SDS011;7095;51.388;6.196;2023-04-24T13:12:37;6.27;;;1.47;;
14040;SDS011;7095;51.388;6.196;2023-04-24T13:15:07;3.50;;;1.30;;
14040;SDS011;7095;51.388;6.196;2023-04-24T13:17:36;3.63;;;1.10;;
14040;SDS011;7095;51.388;6.196;2023-04-24T13:20:05;3.17;;;1.23;;
14040;SDS011;7095;51.388;6.196;2023-04-24T13:22:34;4.43;;;1.33;;
14040;SDS011;7095;51.388;6.196;2023-04-24T13:25:04;5.80;;;0.90;;
14040;SDS011;7095;51.388;6.196;2023-04-24T13:27:35;3.50;;;1.00;;
14040;SDS011;7095;51.388;6.196;2023-04-24T13:30:06;3.63;;;1.23;;
14040;SDS011;7095;51.388;6.196;2023-04-24T13:32:35;1.13;;;0.80;;
14040;SDS011;7095;51.388;6.196;2023-04-24T13:35:04;2.23;;;0.67;;
14040;SDS011;7095;51.388;6.196;2023-04-24T13:37:33;4.93;;;1.00;;
14040;SDS011;7095;51.388;6.196;2023-04-24T13:40:02;1.60;;;1.10;;
14040;SDS011;7095;51.388;6.196;2023-04-24T13:42:33;2.50;;;1.13;;
14040;SDS011;7095;51.388;6.196;2023-04-24T13:45:03;2.20;;;1.07;;
14040;SDS011;7095;51.388;6.196;2023-04-24T13:47:50;4.17;;;1.00;;
14040;SDS011;7095;51.388;6.196;2023-04-24T13:50:21;3.57;;;1.07;;
14040;SDS011;7095;51.388;6.196;2023-04-24T13:52:49;1.53;;;1.00;;
14040;SDS011;7095;51.388;6.196;2023-04-24T13:55:18;6.33;;;1.37;;
14040;SDS011;7095;51.388;6.196;2023-04-24T13:57:46;3.50;;;0.70;;
14040;SDS011;7095;51.388;6.196;2023-04-24T14:00:17;3.63;;;1.23;;
14040;SDS011;7095;51.388;6.196;2023-04-24T14:02:46;2.20;;;1.10;;
14040;SDS011;7095;51.388;6.196;2023-04-24T14:05:15;4.03;;;1.10;;
14040;SDS011;7095;51.388;6.196;2023-04-24T14:07:45;2.87;;;1.37;;
14040;SDS011;7095;51.388;6.196;2023-04-24T14:10:13;3.50;;;1.30;;
14040;SDS011;7095;51.388;6.196;2023-04-24T14:12:42;6.57;;;1.60;;
14040;SDS011;7095;51.388;6.196;2023-04-24T14:15:11;6.23;;;1.53;;
14040;SDS011;7095;51.388;6.196;2023-04-24T14:17:41;4.67;;;1.30;;
14040;SDS011;7095;51.388;6.196;2023-04-24T14:20:12;2.50;;;1.57;;
14040;SDS011;7095;51.388;6.196;2023-04-24T14:22:40;4.30;;;1.53;;
14040;SDS011;7095;51.388;6.196;2023-04-24T14:25:09;7.07;;;2.00;;
14040;SDS011;7095;51.388;6.196;2023-04-24T14:27:37;6.17;;;1.70;;
14040;SDS011;7095;51.388;6.196;2023-04-24T14:30:07;6.37;;;1.43;;
14040;SDS011;7095;51.388;6.196;2023-04-24T14:32:37;3.83;;;1.67;;
14040;SDS011;7095;51.388;6.196;2023-04-24T14:35:08;3.60;;;1.63;;
14040;SDS011;7095;51.388;6.196;2023-04-24T14:37:37;3.83;;;1.77;;
14040;SDS011;7095;51.388;6.196;2023-04-24T14:40:08;4.07;;;1.50;;
14040;SDS011;7095;51.388;6.196;2023-04-24T14:42:57;3.73;;;1.30;;
14040;SDS011;7095;51.388;6.196;2023-04-24T14:45:25;3.50;;;1.70;;
14040;SDS011;7095;51.388;6.196;2023-04-24T14:47:54;5.50;;;2.33;;
14040;SDS011;7095;51.388;6.196;2023-04-24T14:50:26;6.73;;;1.40;;
14040;SDS011;7095;51.388;6.196;2023-04-24T14:52:55;7.53;;;1.80;;
14040;SDS011;7095;51.388;6.196;2023-04-24T14:55:24;4.57;;;2.00;;
14040;SDS011;7095;51.388;6.196;2023-04-24T14:57:53;4.37;;;2.20;;
14040;SDS011;7095;51.388;6.196;2023-04-24T15:00:22;5.17;;;2.00;;
14040;SDS011;7095;51.388;6.196;2023-04-24T15:02:51;4.90;;;1.77;;
14040;SDS011;7095;51.388;6.196;2023-04-24T15:05:19;4.93;;;1.93;;
14040;SDS011;7095;51.388;6.196;2023-04-24T15:07:50;10.33;;;2.63;;
14040;SDS011;7095;51.388;6.196;2023-04-24T15:10:18;4.87;;;2.20;;
14040;SDS011;7095;51.388;6.196;2023-04-24T15:12:49;6.87;;;1.67;;
14040;SDS011;7095;51.388;6.196;2023-04-24T15:15:18;4.50;;;1.83;;
14040;SDS011;7095;51.388;6.196;2023-04-24T15:17:47;4.50;;;2.20;;
14040;SDS011;7095;51.388;6.196;2023-04-24T15:20:15;4.00;;;1.60;;